| time (UTC) | temp F | wind direction | speed MPH | gust MPH | rain 1hr in | rain 24hr in | rain mn in | humidity % | barometer mb |
| 20260510230004 | 64 | 17 | 0.0 | 0.0 | 0.00 | 0.00 | 0.00 | 79 | 1011.2 |
| 20260510225003 | 64 | 17 | 0.0 | 2.0 | 0.00 | 0.00 | 0.00 | 79 | 1011.2 |
| 20260510224503 | 64 | 17 | 0.0 | 2.0 | 0.00 | 0.00 | 0.00 | 80 | 1011.2 |
| 20260510224003 | 64 | 17 | 1.0 | 2.0 | 0.00 | 0.00 | 0.00 | 80 | 1011.2 |
| 20260510223502 | 64 | 17 | 0.0 | 0.0 | 0.00 | 0.00 | 0.00 | 80 | 1011.2 |
| 20260510223002 | 64 | 17 | 0.0 | 2.0 | 0.00 | 0.00 | 0.00 | 80 | 1011.0 |
| 20260510222503 | 64 | 17 | 0.0 | 3.0 | 0.00 | 0.00 | 0.00 | 79 | 1011.1 |
| 20260510221503 | 64 | 5 | 1.0 | 2.0 | 0.00 | 0.01 | 0.00 | 79 | 1011.1 |
| 20260510221003 | 65 | 5 | 1.0 | 2.0 | 0.00 | 0.01 | 0.00 | 78 | 1011.0 |
| 20260510220503 | 65 | 5 | 0.0 | 1.0 | 0.00 | 0.01 | 0.00 | 78 | 1010.9 |
| 20260510220003 | 65 | 0 | 0.0 | 2.0 | 0.00 | 0.01 | 0.00 | 77 | 1010.9 |
| 20260510215502 | 65 | 171 | 0.0 | 3.0 | 0.00 | 0.02 | 0.00 | 76 | 1011.0 |
| 20260510215002 | 66 | 18 | 0.0 | 3.0 | 0.00 | 0.03 | 0.00 | 76 | 1011.0 |
| 20260510214502 | 66 | 178 | 0.0 | 1.0 | 0.00 | 0.06 | 0.00 | 75 | 1011.1 |
| 20260510213503 | 68 | 16 | 1.0 | 5.0 | 0.00 | 0.08 | 0.00 | 71 | 1011.0 |
| 20260510213003 | 69 | 29 | 0.0 | 3.0 | 0.00 | 0.08 | 0.00 | 70 | 1010.9 |
| 20260510212003 | 71 | 175 | 2.0 | 6.0 | 0.00 | 0.09 | 0.00 | 59 | 1010.9 |
| 20260510211502 | 71 | 348 | 2.0 | 3.0 | 0.00 | 0.10 | 0.00 | 57 | 1010.7 |
| 20260510211002 | 71 | 358 | 2.0 | 3.0 | 0.00 | 0.10 | 0.00 | 57 | 1010.6 |
| 20260510210503 | 71 | 72 | 1.0 | 3.0 | 0.00 | 0.10 | 0.00 | 56 | 1010.4 |
| 20260510205003 | 72 | 16 | 1.0 | 3.0 | 0.00 | 0.10 | 0.00 | 54 | 1010.3 |
| 20260510204002 | 72 | 325 | 2.0 | 5.0 | 0.00 | 0.10 | 0.00 | 52 | 1010.2 |
| 20260510202503 | 73 | 1 | 2.0 | 5.0 | 0.00 | 0.10 | 0.00 | 54 | 1010.1 |
| 20260510202003 | 73 | 56 | 1.0 | 3.0 | 0.00 | 0.10 | 0.00 | 54 | 1009.9 |
| 20260510200502 | 74 | 335 | 2.0 | 6.0 | 0.00 | 0.10 | 0.00 | 54 | 1010.0 |
| 20260510200002 | 74 | 12 | 2.0 | 3.0 | 0.00 | 0.10 | 0.00 | 55 | 1010.1 |
| 20260510195503 | 74 | 29 | 2.0 | 3.0 | 0.00 | 0.10 | 0.00 | 53 | 1010.2 |
| 20260510194502 | 74 | 4 | 1.0 | 3.0 | 0.00 | 0.10 | 0.00 | 55 | 1010.1 |
| 20260510194003 | 75 | 58 | 2.0 | 5.0 | 0.00 | 0.10 | 0.00 | 55 | 1010.2 |
| 20260510193002 | 74 | 290 | 2.0 | 7.0 | 0.00 | 0.10 | 0.00 | 56 | 1010.1 |
| 20260510192502 | 74 | 0 | 1.0 | 5.0 | 0.00 | 0.10 | 0.00 | 57 | 1010.2 |
| 20260510192002 | 75 | 315 | 2.0 | 6.0 | 0.00 | 0.10 | 0.00 | 57 | 1010.3 |
| 20260510191504 | 75 | 0 | 4.0 | 8.0 | 0.00 | 0.10 | 0.00 | 56 | 1010.3 |
| 20260510190502 | 74 | 16 | 3.0 | 7.0 | 0.00 | 0.10 | 0.00 | 59 | 1010.3 |
| 20260510185004 | 73 | 34 | 0.0 | 3.0 | 0.00 | 0.11 | 0.00 | 61 | 1010.4 |
| 20260510184002 | 73 | 2 | 5.0 | 12.0 | 0.00 | 0.11 | 0.00 | 59 | 1010.5 |
| 20260510183502 | 73 | 0 | 2.0 | 6.0 | 0.00 | 0.11 | 0.00 | 60 | 1010.5 |
| 20260510182504 | 73 | 351 | 4.0 | 8.0 | 0.00 | 0.11 | 0.00 | 60 | 1010.5 |
| 20260510182002 | 72 | 0 | 2.0 | 5.0 | 0.00 | 0.11 | 0.00 | 62 | 1010.5 |
| 20260510181502 | 71 | 356 | 2.0 | 3.0 | 0.00 | 0.11 | 0.00 | 64 | 1010.5 |
| 20260510181004 | 72 | 185 | 1.0 | 3.0 | 0.00 | 0.11 | 0.00 | 65 | 1010.6 |
| 20260510180502 | 72 | 23 | 1.0 | 2.0 | 0.00 | 0.11 | 0.00 | 64 | 1010.6 |
| 20260510175502 | 72 | 171 | 1.0 | 3.0 | 0.00 | 0.11 | 0.00 | 64 | 1010.5 |
| 20260510174002 | 71 | 172 | 1.0 | 5.0 | 0.00 | 0.11 | 0.00 | 66 | 1010.4 |
| 20260510173504 | 71 | 207 | 0.0 | 2.0 | 0.00 | 0.11 | 0.00 | 67 | 1010.3 |
| 20260510172502 | 70 | 181 | 1.0 | 3.0 | 0.00 | 0.11 | 0.00 | 68 | 1010.4 |
| 20260510171503 | 69 | 89 | 0.0 | 3.0 | 0.00 | 0.11 | 0.00 | 72 | 1010.5 |
| 20260510171003 | 68 | 94 | 3.0 | 6.0 | 0.00 | 0.11 | 0.00 | 71 | 1010.6 |
| 20260510170502 | 68 | 69 | 2.0 | 5.0 | 0.00 | 0.11 | 0.00 | 73 | 1010.7 |
| 20260510170002 | 68 | 252 | 1.0 | 5.0 | 0.00 | 0.11 | 0.00 | 72 | 1010.7 |
| 20260510165503 | 67 | 112 | 1.0 | 3.0 | 0.00 | 0.11 | 0.00 | 72 | 1010.7 |
| 20260510164502 | 67 | 23 | 2.0 | 5.0 | 0.00 | 0.11 | 0.00 | 73 | 1010.9 |
| 20260510164003 | 66 | 33 | 1.0 | 3.0 | 0.00 | 0.11 | 0.00 | 74 | 1011.0 |
| 20260510163503 | 66 | 14 | 2.0 | 7.0 | 0.00 | 0.11 | 0.00 | 76 | 1011.0 |
| 20260510162503 | 65 | 183 | 2.0 | 5.0 | 0.00 | 0.11 | 0.00 | 76 | 1011.1 |
| 20260510160002 | 64 | 44 | 1.0 | 5.0 | 0.00 | 0.11 | 0.00 | 79 | 1011.0 |
| 20260510155503 | 63 | 24 | 2.0 | 3.0 | 0.00 | 0.11 | 0.00 | 79 | 1011.0 |
| 20260510154502 | 63 | 33 | 2.0 | 3.0 | 0.00 | 0.11 | 0.00 | 81 | 1011.3 |
| 20260510153504 | 62 | 16 | 2.0 | 3.0 | 0.00 | 0.11 | 0.00 | 81 | 1011.4 |
| 20260510153003 | 61 | 38 | 1.0 | 3.0 | 0.00 | 0.11 | 0.00 | 82 | 1011.4 |
| 20260510152502 | 61 | 134 | 0.0 | 3.0 | 0.00 | 0.11 | 0.00 | 82 | 1011.4 |
| 20260510152002 | 60 | 22 | 0.0 | 2.0 | 0.00 | 0.11 | 0.00 | 83 | 1011.3 |
| 20260510151003 | 60 | 10 | 1.0 | 5.0 | 0.00 | 0.11 | 0.00 | 84 | 1011.4 |
| 20260510150003 | 59 | 19 | 2.0 | 3.0 | 0.00 | 0.11 | 0.00 | 84 | 1011.5 |
| 20260510145503 | 59 | 33 | 1.0 | 3.0 | 0.00 | 0.11 | 0.00 | 85 | 1011.4 |
| 20260510145002 | 59 | 20 | 1.0 | 3.0 | 0.00 | 0.11 | 0.00 | 86 | 1011.5 |
| 20260510142503 | 58 | 19 | 2.0 | 3.0 | 0.00 | 0.11 | 0.00 | 85 | 1011.4 |
| 20260510142003 | 58 | 22 | 1.0 | 3.0 | 0.00 | 0.11 | 0.00 | 86 | 1011.4 |
| 20260510141504 | 58 | 13 | 1.0 | 5.0 | 0.00 | 0.11 | 0.00 | 86 | 1011.4 |
| 20260510140502 | 58 | 16 | 1.0 | 3.0 | 0.00 | 0.11 | 0.00 | 87 | 1011.3 |
| 20260510134503 | 57 | 35 | 0.0 | 2.0 | 0.00 | 0.11 | 0.00 | 87 | 1011.2 |
| 20260510133502 | 57 | 28 | 0.0 | 2.0 | 0.00 | 0.11 | 0.00 | 88 | 1011.1 |
| 20260510133003 | 57 | 188 | 0.0 | 2.0 | 0.00 | 0.11 | 0.00 | 88 | 1011.2 |
| 20260510132502 | 56 | 172 | 1.0 | 3.0 | 0.00 | 0.11 | 0.00 | 88 | 1011.2 |
| 20260510132003 | 56 | 43 | 1.0 | 2.0 | 0.00 | 0.11 | 0.00 | 89 | 1011.1 |
| 20260510131503 | 56 | 20 | 1.0 | 3.0 | 0.00 | 0.11 | 0.00 | 89 | 1011.1 |
| 20260510122503 | 55 | 85 | 0.0 | 1.0 | 0.00 | 0.11 | 0.00 | 91 | 1010.6 |
| 20260510122003 | 55 | 10 | 1.0 | 3.0 | 0.00 | 0.11 | 0.00 | 91 | 1010.4 |
| 20260510120003 | 55 | 149 | 0.0 | 0.0 | 0.00 | 0.11 | 0.00 | 92 | 1010.4 |
| 20260510114502 | 55 | 149 | 0.0 | 0.0 | 0.00 | 0.11 | 0.00 | 92 | 1010.1 |
| 20260510114004 | 55 | 163 | 0.0 | 1.0 | 0.00 | 0.11 | 0.00 | 93 | 1010.3 |
| 20260510113003 | 55 | 163 | 0.0 | 0.0 | 0.00 | 0.11 | 0.00 | 93 | 1010.2 |
| 20260510111503 | 54 | 163 | 0.0 | 2.0 | 0.00 | 0.11 | 0.00 | 93 | 1009.8 |
| 20260510111004 | 54 | 163 | 0.0 | 0.0 | 0.00 | 0.11 | 0.00 | 93 | 1009.6 |
| 20260510110503 | 54 | 163 | 0.0 | 1.0 | 0.00 | 0.11 | 0.00 | 93 | 1009.6 |
| 20260510104503 | 54 | 167 | 0.0 | 1.0 | 0.00 | 0.11 | 0.00 | 93 | 1009.6 |
| 20260510103003 | 53 | 167 | 0.0 | 1.0 | 0.00 | 0.11 | 0.00 | 93 | 1009.8 |
| 20260510102503 | 53 | 167 | 0.0 | 2.0 | 0.00 | 0.11 | 0.00 | 93 | 1009.7 |
| 20260510102003 | 53 | 169 | 0.0 | 0.0 | 0.00 | 0.11 | 0.00 | 93 | 1009.7 |
| 20260510101003 | 53 | 169 | 0.0 | 2.0 | 0.00 | 0.11 | 0.00 | 93 | 1009.7 |
| 20260510100002 | 53 | 172 | 0.0 | 1.0 | 0.00 | 0.11 | 0.00 | 93 | 1009.6 |
| 20260510095502 | 53 | 177 | 1.0 | 2.0 | 0.00 | 0.11 | 0.00 | 93 | 1009.7 |
| 20260510095003 | 53 | 183 | 0.0 | 0.0 | 0.00 | 0.11 | 0.00 | 93 | 1009.8 |
| 20260510094503 | 53 | 183 | 0.0 | 1.0 | 0.00 | 0.11 | 0.00 | 93 | 1009.8 |
| 20260510092002 | 54 | 201 | 0.0 | 3.0 | 0.00 | 0.11 | 0.00 | 93 | 1010.1 |
| 20260510091502 | 54 | 173 | 0.0 | 1.0 | 0.00 | 0.11 | 0.00 | 93 | 1010.1 |
| 20260510090503 | 54 | 200 | 1.0 | 3.0 | 0.00 | 0.11 | 0.00 | 93 | 1010.1 |
| 20260510085003 | 54 | 190 | 1.0 | 2.0 | 0.00 | 0.11 | 0.00 | 93 | 1010.1 |
| 20260510083504 | 54 | 190 | 1.0 | 3.0 | 0.00 | 0.11 | 0.00 | 94 | 1009.9 |
| 20260510083002 | 54 | 180 | 1.0 | 3.0 | 0.00 | 0.11 | 0.00 | 94 | 1009.8 |
| 20260510082003 | 54 | 183 | 0.0 | 2.0 | 0.00 | 0.11 | 0.00 | 94 | 1009.7 |
| 20260510081502 | 54 | 183 | 0.0 | 0.0 | 0.00 | 0.11 | 0.00 | 94 | 1009.4 |
| 20260510081002 | 53 | 183 | 0.0 | 1.0 | 0.00 | 0.11 | 0.00 | 94 | 1009.3 |
| 20260510074003 | 53 | 183 | 0.0 | 1.0 | 0.00 | 0.11 | 0.00 | 94 | 1009.1 |
| 20260510073503 | 53 | 183 | 0.0 | 1.0 | 0.00 | 0.11 | 0.00 | 94 | 1009.0 |
| 20260510073002 | 53 | 183 | 0.0 | 0.0 | 0.00 | 0.11 | 0.00 | 94 | 1009.1 |
| 20260510072003 | 53 | 183 | 0.0 | 2.0 | 0.00 | 0.11 | 0.00 | 94 | 1009.1 |
| 20260510070003 | 53 | 119 | 0.0 | 1.0 | 0.00 | 0.11 | 0.00 | 93 | 1009.3 |
| 20260510065502 | 53 | 119 | 1.0 | 2.0 | 0.00 | 0.11 | 0.00 | 94 | 1009.3 |
| 20260510064504 | 54 | 193 | 0.0 | 1.0 | 0.00 | 0.11 | 0.00 | 94 | 1009.3 |
| 20260510063502 | 54 | 193 | 0.0 | 0.0 | 0.00 | 0.11 | 0.00 | 94 | 1009.1 |
| 20260510063003 | 54 | 193 | 0.0 | 1.0 | 0.00 | 0.11 | 0.00 | 94 | 1009.1 |
| 20260510062002 | 53 | 193 | 0.0 | 1.0 | 0.00 | 0.11 | 0.00 | 94 | 1008.8 |
| 20260510060003 | 53 | 193 | 0.0 | 0.0 | 0.00 | 0.11 | 0.00 | 94 | 1008.8 |
| 20260510055503 | 52 | 193 | 0.0 | 0.0 | 0.00 | 0.11 | 0.00 | 94 | 1008.8 |
| 20260510055002 | 52 | 193 | 0.0 | 0.0 | 0.00 | 0.11 | 0.00 | 94 | 1008.9 |
| 20260510054503 | 52 | 193 | 0.0 | 0.0 | 0.00 | 0.11 | 0.00 | 93 | 1008.9 |
| 20260510053503 | 52 | 193 | 0.0 | 0.0 | 0.00 | 0.11 | 0.00 | 93 | 1008.9 |
| 20260510052503 | 52 | 193 | 0.0 | 0.0 | 0.00 | 0.11 | 0.00 | 93 | 1008.9 |
| 20260510051504 | 52 | 193 | 0.0 | 0.0 | 0.00 | 0.11 | 0.00 | 93 | 1009.0 |
| 20260510050503 | 52 | 193 | 0.0 | 0.0 | 0.00 | 0.11 | 0.00 | 93 | 1009.1 |
| 20260510050004 | 52 | 193 | 0.0 | 0.0 | 0.00 | 0.11 | 0.00 | 93 | 1009.0 |
| 20260510044503 | 52 | 193 | 0.0 | 0.0 | 0.00 | 0.11 | 0.00 | 93 | 1009.1 |
| 20260510044003 | 52 | 193 | 0.0 | 0.0 | 0.00 | 0.11 | 0.00 | 93 | 1009.2 |
| 20260510043004 | 53 | 192 | 0.0 | 0.0 | 0.00 | 0.11 | 0.00 | 93 | 1009.1 |
| 20260510042503 | 53 | 192 | 0.0 | 0.0 | 0.00 | 0.11 | 0.00 | 93 | 1009.1 |
| 20260510042002 | 53 | 192 | 0.0 | 0.0 | 0.00 | 0.11 | 0.00 | 93 | 1009.1 |
| 20260510041503 | 53 | 192 | 0.0 | 0.0 | 0.00 | 0.11 | 0.00 | 93 | 1009.1 |
| 20260510040503 | 53 | 192 | 0.0 | 0.0 | 0.00 | 0.11 | 0.00 | 93 | 1009.0 |
| 20260510040004 | 53 | 192 | 0.0 | 0.0 | 0.00 | 0.11 | 0.00 | 92 | 1008.9 |
| 20260510035503 | 53 | 192 | 0.0 | 0.0 | 0.00 | 0.11 | 0.11 | 92 | 1008.9 |
| 20260510033002 | 53 | 192 | 0.0 | 0.0 | 0.00 | 0.11 | 0.11 | 92 | 1008.7 |
| 20260510032503 | 53 | 192 | 0.0 | 0.0 | 0.00 | 0.11 | 0.11 | 92 | 1008.7 |
| 20260510032003 | 53 | 192 | 0.0 | 0.0 | 0.00 | 0.11 | 0.11 | 92 | 1008.7 |
| 20260510031502 | 53 | 192 | 0.0 | 0.0 | 0.00 | 0.11 | 0.11 | 92 | 1008.7 |
| 20260510030503 | 53 | 192 | 0.0 | 0.0 | 0.00 | 0.11 | 0.11 | 92 | 1008.7 |
| 20260510025502 | 54 | 192 | 0.0 | 0.0 | 0.00 | 0.11 | 0.11 | 92 | 1008.7 |
| 20260510024503 | 54 | 192 | 0.0 | 0.0 | 0.00 | 0.11 | 0.11 | 92 | 1008.8 |
| 20260510024004 | 54 | 192 | 0.0 | 0.0 | 0.00 | 0.11 | 0.11 | 92 | 1008.8 |
| 20260510023003 | 54 | 192 | 0.0 | 0.0 | 0.00 | 0.11 | 0.11 | 92 | 1008.8 |
| 20260510022003 | 54 | 192 | 0.0 | 0.0 | 0.00 | 0.11 | 0.11 | 92 | 1008.8 |
| 20260510021003 | 54 | 192 | 0.0 | 0.0 | 0.00 | 0.11 | 0.11 | 92 | 1008.7 |
| 20260510020503 | 54 | 192 | 0.0 | 0.0 | 0.00 | 0.11 | 0.11 | 92 | 1008.8 |
| 20260510020003 | 54 | 192 | 0.0 | 0.0 | 0.00 | 0.11 | 0.11 | 92 | 1008.8 |
| 20260510015503 | 54 | 192 | 0.0 | 0.0 | 0.00 | 0.11 | 0.11 | 92 | 1008.8 |
| 20260510015003 | 54 | 192 | 0.0 | 0.0 | 0.00 | 0.11 | 0.11 | 92 | 1008.7 |
| 20260510014503 | 54 | 192 | 0.0 | 0.0 | 0.00 | 0.11 | 0.11 | 92 | 1008.7 |
| 20260510013504 | 54 | 192 | 0.0 | 0.0 | 0.00 | 0.11 | 0.11 | 91 | 1008.7 |
| 20260510013003 | 55 | 192 | 0.0 | 0.0 | 0.00 | 0.11 | 0.11 | 91 | 1008.7 |
| 20260510012002 | 55 | 192 | 0.0 | 0.0 | 0.00 | 0.11 | 0.11 | 91 | 1008.5 |
| 20260510011003 | 55 | 192 | 0.0 | 0.0 | 0.00 | 0.11 | 0.11 | 91 | 1008.4 |
| 20260510005503 | 55 | 192 | 0.0 | 0.0 | 0.00 | 0.11 | 0.11 | 91 | 1008.2 |
| 20260510004503 | 55 | 192 | 0.0 | 0.0 | 0.00 | 0.11 | 0.11 | 90 | 1008.2 |
| 20260510004004 | 55 | 192 | 0.0 | 0.0 | 0.00 | 0.11 | 0.11 | 91 | 1008.2 |
| 20260510003503 | 55 | 192 | 0.0 | 0.0 | 0.00 | 0.11 | 0.11 | 90 | 1008.2 |
| 20260510003003 | 55 | 192 | 0.0 | 0.0 | 0.00 | 0.11 | 0.11 | 90 | 1008.1 |
| 20260510002504 | 55 | 192 | 0.0 | 0.0 | 0.00 | 0.11 | 0.11 | 90 | 1008.1 |
| 20260509235003 | 56 | 192 | 0.0 | 0.0 | 0.00 | 0.11 | 0.11 | 89 | 1007.8 |
| 20260509234502 | 56 | 192 | 0.0 | 0.0 | 0.00 | 0.11 | 0.11 | 89 | 1007.9 |
| 20260509234003 | 56 | 192 | 0.0 | 0.0 | 0.00 | 0.11 | 0.11 | 89 | 1007.9 |
| 20260509233004 | 56 | 192 | 0.0 | 0.0 | 0.00 | 0.11 | 0.11 | 89 | 1007.8 |
| 20260509232003 | 56 | 192 | 0.0 | 0.0 | 0.00 | 0.11 | 0.11 | 89 | 1007.9 |